Time;durP1;ratioP1;P1;durP2;ratioP2;P2;SDS_P1;SDS_P2;PMS_P1;PMS_P2;Temp;Humidity;BMP_temperature;BMP_pressure;BME280_temperature;BME280_humidity;BME280_pressure;Samples;Min_cycle;Max_cycle;Signal;HPM_P1;HPM_P2
2021/09/06 04:35:54;;;;;;;20.90;18.77;;;18.00;99.90;;;;;;6214406;22;1455635;-80
2021/09/06 04:38:24;;;;;;;21.88;19.65;;;18.00;99.90;;;;;;6157853;23;20381;-75
2021/09/06 04:40:51;;;;;;;22.15;19.77;;;18.00;99.90;;;;;;6157734;23;20037;-76
2021/09/06 04:43:37;;;;;;;21.55;19.50;;;18.00;99.90;;;;;;6159128;23;20039;-75
2021/09/06 04:46:04;;;;;;;22.25;19.70;;;18.00;99.90;;;;;;6198234;23;20024;-76
2021/09/06 04:49:05;;;;;;;20.90;18.77;;;18.00;99.90;;;;;;6195555;23;20023;-76
2021/09/06 04:51:46;;;;;;;20.73;18.60;;;18.00;99.90;;;;;;6115436;22;20025;-75
2021/09/06 04:54:56;;;;;;;20.50;18.40;;;18.00;99.90;;;;;;6027479;23;20026;-77
2021/09/06 04:57:54;;;;;;;20.50;18.60;;;18.00;99.90;;;;;;5916502;24;20478;-75
2021/09/06 05:00:22;;;;;;;21.77;19.63;;;18.00;99.90;;;;;;5966653;23;20020;-76
2021/09/06 05:03:04;;;;;;;;;;;;;;;;;;;;;
2021/09/06 05:05:49;;;;;;;22.15;20.05;;;17.90;99.90;;;;;;6108717;23;20316;-76
2021/09/06 05:08:16;;;;;;;22.10;19.75;;;18.00;99.90;;;;;;6103863;23;20036;-76
2021/09/06 05:10:43;;;;;;;20.55;18.50;;;17.90;99.90;;;;;;6121377;23;20129;-76
2021/09/06 05:13:15;;;;;;;22.38;18.92;;;17.90;99.90;;;;;;6121068;23;20038;-76
2021/09/06 05:15:48;;;;;;;20.92;18.92;;;17.90;99.90;;;;;;6164174;23;20501;-76
2021/09/06 05:18:18;;;;;;;21.40;19.05;;;17.90;99.90;;;;;;6210996;23;20021;-76
2021/09/06 05:20:47;;;;;;;22.00;19.45;;;17.90;99.90;;;;;;6194825;23;20469;-76
2021/09/06 05:23:21;;;;;;;22.65;18.67;;;17.90;99.90;;;;;;6182669;22;20031;-76
2021/09/06 05:25:53;;;;;;;23.00;18.92;;;17.90;99.90;;;;;;6178479;23;20024;-76
2021/09/06 05:28:23;;;;;;;21.38;18.88;;;17.90;99.90;;;;;;6184577;23;20023;-76
2021/09/06 05:30:52;;;;;;;20.50;18.40;;;17.90;99.90;;;;;;6186675;23;20450;-76
2021/09/06 05:33:31;;;;;;;19.08;17.23;;;18.00;99.90;;;;;;6186856;23;20024;-76
2021/09/06 05:35:58;;;;;;;19.98;18.05;;;17.90;99.90;;;;;;6181097;23;20028;-75
2021/09/06 05:38:27;;;;;;;20.25;18.17;;;17.90;99.90;;;;;;6212071;23;20035;-76
2021/09/06 05:40:55;;;;;;;20.02;17.92;;;17.90;99.90;;;;;;6193057;23;20441;-76
2021/09/06 05:43:25;;;;;;;18.83;16.83;;;18.00;99.90;;;;;;6186443;23;20079;-76
2021/09/06 05:45:54;;;;;;;19.42;17.42;;;18.00;99.90;;;;;;6189501;23;20024;-76
2021/09/06 05:48:29;;;;;;;19.88;17.88;;;18.00;99.90;;;;;;6197624;23;20023;-76
2021/09/06 05:51:14;;;;;;;;;;;;;;;;;;;;;
2021/09/06 05:54:03;;;;;;;22.45;18.00;;;18.00;99.90;;;;;;6202321;23;20372;-76
2021/09/06 05:57:13;;;;;;;19.67;17.63;;;18.00;99.90;;;;;;6118473;23;20029;-78
2021/09/06 06:04:14;;;;;;;20.17;18.05;;;18.10;99.90;;;;;;5956235;23;20030;-76
2021/09/06 06:06:55;;;;;;;19.40;17.35;;;18.10;99.90;;;;;;6012746;23;20019;-76
2021/09/06 06:09:25;;;;;;;20.10;18.00;;;18.10;99.90;;;;;;6109898;23;20018;-76
2021/09/06 06:11:55;;;;;;;18.80;16.90;;;18.10;99.90;;;;;;6049118;23;20026;-76
2021/09/06 06:14:56;;;;;;;19.15;17.15;;;18.20;99.90;;;;;;6075731;23;20108;-76
2021/09/06 06:17:42;;;;;;;19.38;17.35;;;18.20;99.90;;;;;;6009580;23;20029;-76
2021/09/06 06:20:22;;;;;;;18.73;15.75;;;18.20;99.90;;;;;;6085268;23;20604;-76
2021/09/06 06:23:07;;;;;;;21.45;16.45;;;18.20;99.90;;;;;;6097526;23;20022;-76
2021/09/06 06:25:38;;;;;;;17.98;16.17;;;18.30;99.90;;;;;;6058381;23;20017;-76
2021/09/06 06:28:28;;;;;;;;;;;;;;;;;;;;;
2021/09/06 06:34:59;;;;;;;15.77;14.27;;;18.50;99.90;;;;;;6071403;23;20029;-76
2021/09/06 06:37:26;;;;;;;13.65;12.35;;;18.50;99.90;;;;;;6083998;23;20050;-76
2021/09/06 06:39:58;;;;;;;15.70;14.13;;;18.60;99.90;;;;;;6071972;23;20032;-76
2021/09/06 06:42:36;;;;;;;;;;;18.60;99.90;;;;;;6032656;23;20085;-76
2021/09/06 06:45:55;;;;;;;;;;;;;;;;;;;;;
2021/09/06 06:49:27;;;;;;;;;;;;;;;;;;;;;
2021/09/06 06:52:14;;;;;;;;;;;;;;;;;;;;;
2021/09/06 06:55:33;;;;;;;13.02;11.82;;;18.90;99.90;;;;;;6051374;23;20030;-76
2021/09/06 06:58:50;;;;;;;12.23;11.02;;;19.00;99.90;;;;;;6019216;23;20082;-76
2021/09/06 07:02:13;;;;;;;13.20;12.00;;;19.10;99.90;;;;;;5979186;23;20044;-76
2021/09/06 07:05:09;;;;;;;12.80;11.50;;;19.30;99.90;;;;;;6019765;23;20054;-76
2021/09/06 07:08:10;;;;;;;11.15;10.05;;;19.40;99.90;;;;;;5972210;23;20023;-76
2021/09/06 07:11:33;;;;;;;;;;;;;;;;;;;;;
2021/09/06 07:14:43;;;;;;;11.95;10.27;;;19.60;99.90;;;;;;5938224;23;20024;-76
2021/09/06 07:18:01;;;;;;;11.43;9.98;;;19.80;99.90;;;;;;5843463;24;20041;-76
2021/09/06 07:21:18;;;;;;;10.32;9.40;;;19.90;99.90;;;;;;5787713;24;20117;-76
2021/09/06 07:24:01;;;;;;;10.43;9.40;;;20.00;99.90;;;;;;5719269;24;20025;-76
2021/09/06 07:26:35;;;;;;;10.18;9.18;;;20.10;99.90;;;;;;5773172;24;20020;-76
2021/09/06 07:29:15;;;;;;;10.82;9.30;;;20.20;99.90;;;;;;5857449;24;20085;-76
2021/09/06 07:32:00;;;;;;;10.20;9.20;;;20.40;99.90;;;;;;5813259;24;20018;-76
2021/09/06 07:36:07;;;;;;;;;;;;;;;;;;;;;
2021/09/06 07:39:26;;;;;;;;;;;;;;;;;;;;;
2021/09/06 07:42:38;;;;;;;;;;;;;;;;;;;;;
2021/09/06 07:46:16;;;;;;;9.27;8.30;;;21.00;99.90;;;;;;5895874;23;20023;-76
2021/09/06 07:49:37;;;;;;;;;;;;;;;;;;;;;
2021/09/06 07:53:01;;;;;;;;;;;;;;;;;;;;;
2021/09/06 08:06:11;;;;;;;8.70;7.90;;;21.50;99.90;;;;;;5046732;28;20780;-78
2021/09/06 08:09:07;;;;;;;7.32;6.60;;;22.20;99.90;;;;;;4967361;28;20089;-77
2021/09/06 08:12:06;;;;;;;7.25;6.63;;;22.30;99.90;;;;;;4939656;28;20050;-78
2021/09/06 08:14:39;;;;;;;8.15;6.78;;;22.50;99.90;;;;;;4950877;28;20051;-77
2021/09/06 08:17:17;;;;;;;6.47;5.80;;;22.60;99.90;;;;;;4917438;28;20043;-78
2021/09/06 08:20:10;;;;;;;9.70;5.75;;;22.80;99.90;;;;;;4940766;28;20054;-77
2021/09/06 08:23:06;;;;;;;;;;;;;;;;;;;;;
2021/09/06 08:26:14;;;;;;;;;;;;;;;;;;;;;
2021/09/06 08:29:09;;;;;;;7.22;6.47;;;23.20;99.90;;;;;;5004405;28;20114;-77
2021/09/06 08:32:06;;;;;;;;;;;;;;;;;;;;;
2021/09/06 08:35:24;;;;;;;;;;;;;;;;;;;;;
2021/09/06 08:38:59;;;;;;;;;;;;;;;;;;;;;
2021/09/06 08:42:10;;;;;;;7.15;6.05;;;23.90;99.90;;;;;;4904491;28;20454;-78
2021/09/06 08:45:29;;;;;;;5.55;5.05;;;24.00;99.90;;;;;;4860506;29;20052;-78
2021/09/06 08:51:53;;;;;;;;;;;;;;;;;;;;;
2021/09/06 08:58:21;;;;;;;;;;;;;;;;;;;;;
2021/09/06 09:21:51;;;;;;;;;;;;;;;;;;;;;
2021/09/06 09:56:20;;;;;;;4.65;2.88;;;26.70;99.90;;;;;;5951109;23;20022;-77
2021/09/06 09:59:48;;;;;;;;;;;;;;;;;;;;;
2021/09/06 10:03:27;;;;;;;;;;;;;;;;;;;;;
2021/09/06 10:06:38;;;;;;;;;;;;;;;;;;;;;
2021/09/06 10:10:31;;;;;;;;;;;;;;;;;;;;;
2021/09/06 10:13:30;;;;;;;2.97;2.75;;;27.20;99.90;;;;;;5757264;24;20035;-78
2021/09/06 10:33:07;;;;;;;3.45;2.58;;;27.60;99.90;;;;;;6089517;23;20017;-76
2021/09/06 10:36:47;;;;;;;;;;;;;;;;;;;;;
2021/09/06 10:39:35;;;;;;;3.80;2.97;;;27.70;99.90;;;;;;5967570;23;20019;-76
2021/09/06 10:42:48;;;;;;;;;;;;;;;;;;;;;
2021/09/06 10:45:52;;;;;;;3.05;2.75;;;27.80;99.90;;;;;;5960052;23;20078;-77
2021/09/06 10:48:45;;;;;;;3.67;2.88;;;27.90;99.90;;;;;;5905491;24;20088;-77
2021/09/06 10:51:36;;;;;;;4.28;2.78;;;28.00;99.90;;;;;;5921809;24;20093;-77
2021/09/06 10:54:09;;;;;;;3.10;2.83;;;28.00;99.90;;;;;;5949739;23;20032;-78
2021/09/06 10:57:00;;;;;;;4.68;2.88;;;28.00;99.90;;;;;;6030194;23;20094;-77
2021/09/06 11:00:00;;;;;;;;;;;;;;;;;;;;;
2021/09/06 11:03:33;;;;;;;;;;;;;;;;;;;;;
2021/09/06 11:06:40;;;;;;;;;;;;;;;;;;;;;
2021/09/06 11:09:58;;;;;;;;;;;;;;;;;;;;;
2021/09/06 11:17:38;;;;;;;;;;;;;;;;;;;;;
2021/09/06 11:20:22;;;;;;;;;;;;;;;;;;;;;
2021/09/06 11:23:27;;;;;;;;;;;;;;;;;;;;;
2021/09/06 11:43:30;;;;;;;3.47;2.58;;;28.50;99.90;;;;;;5723292;22;8818960;-78
2021/09/06 11:46:44;;;;;;;;;;;;;;;;;;;;;
2021/09/06 11:49:44;;;;;;;2.88;2.63;;;28.50;99.90;;;;;;5939156;23;20090;-77
2021/09/06 11:52:50;;;;;;;;;;;;;;;;;;;;;
2021/09/06 11:55:35;;;;;;;4.35;2.20;;;28.60;99.90;;;;;;5968098;23;20171;-78
2021/09/06 11:58:49;;;;;;;4.88;2.80;;;28.60;99.90;;;;;;5902881;23;20098;-78
2021/09/06 12:01:30;;;;;;;3.53;2.70;;;28.60;99.00;;;;;;5957551;23;20067;-78
2021/09/06 12:05:15;;;;;;;;;;;;;;;;;;;;;
2021/09/06 12:08:16;;;;;;;4.53;3.08;;;28.70;99.30;;;;;;6022644;23;20075;-78
2021/09/06 12:14:56;;;;;;;;;;;;;;;;;;;;;
2021/09/06 12:21:38;;;;;;;4.13;2.67;;;28.80;99.40;;;;;;5805552;24;20514;-78
2021/09/06 12:24:30;;;;;;;2.85;2.60;;;28.90;99.30;;;;;;5789518;24;20405;-77
2021/09/06 12:27:18;;;;;;;2.88;2.47;;;28.90;99.30;;;;;;5839047;24;20076;-77
2021/09/06 12:30:00;;;;;;;3.40;2.53;;;28.90;99.00;;;;;;5750545;24;20512;-78
2021/09/06 12:32:50;;;;;;;3.10;2.80;;;28.90;99.50;;;;;;5754671;24;20147;-77
2021/09/06 12:35:42;;;;;;;3.25;2.83;;;28.90;99.50;;;;;;5816931;24;20056;-77
2021/09/06 12:38:25;;;;;;;4.10;2.50;;;29.00;99.50;;;;;;5827868;24;20106;-77
2021/09/06 12:41:29;;;;;;;;;;;;;;;;;;;;;
2021/09/06 12:54:46;;;;;;;5.78;2.78;;;29.00;99.20;;;;;;4990745;28;20897;-76
2021/09/06 12:57:27;;;;;;;4.68;2.67;;;29.00;98.80;;;;;;5000928;28;20053;-76
2021/09/06 13:03:16;;;;;;;3.10;2.80;;;29.00;98.60;;;;;;4930362;28;20573;-76
2021/09/06 13:06:12;;;;;;;3.00;2.78;;;29.10;98.70;;;;;;4983100;28;20515;-76
2021/09/06 13:08:39;;;;;;;3.50;2.45;;;29.10;98.60;;;;;;4997838;28;20059;-77
2021/09/06 13:11:11;;;;;;;5.07;2.78;;;29.10;98.40;;;;;;4969661;28;20475;-76
2021/09/06 13:13:41;;;;;;;4.55;2.55;;;29.10;98.30;;;;;;4968096;28;20127;-76
2021/09/06 13:16:22;;;;;;;;;;;;;;;;;;;;;
2021/09/06 13:18:54;;;;;;;3.13;2.47;;;29.10;98.30;;;;;;4973229;28;20046;-77
2021/09/06 13:21:33;;;;;;;2.58;2.38;;;29.20;98.30;;;;;;4961161;28;20072;-77
2021/09/06 13:24:23;;;;;;;2.83;2.40;;;29.20;98.20;;;;;;4910696;28;20052;-77
2021/09/06 13:26:54;;;;;;;4.68;2.30;;;29.30;98.20;;;;;;4927375;28;20067;-76
2021/09/06 13:29:27;;;;;;;3.10;2.30;;;29.30;98.10;;;;;;4903017;28;20060;-77
2021/09/06 13:32:08;;;;;;;3.65;2.40;;;29.30;97.70;;;;;;4944728;28;20063;-76
2021/09/06 13:34:57;;;;;;;;;;;;;;;;;;;;;
2021/09/06 13:37:51;;;;;;;2.60;2.17;;;29.40;97.60;;;;;;4911914;28;20055;-76
2021/09/06 13:40:23;;;;;;;3.63;2.42;;;29.40;97.50;;;;;;4915793;28;20146;-76
2021/09/06 13:43:14;;;;;;;3.28;2.75;;;29.40;97.30;;;;;;4939377;28;20428;-76
2021/09/06 13:45:48;;;;;;;2.60;2.22;;;29.40;97.30;;;;;;4980822;28;20056;-76
2021/09/06 13:48:19;;;;;;;2.72;2.40;;;29.40;97.00;;;;;;4970581;28;20075;-77
2021/09/06 13:50:54;;;;;;;3.42;2.50;;;29.40;97.10;;;;;;4975740;28;20380;-76
2021/09/06 13:53:32;;;;;;;2.60;2.40;;;29.50;97.00;;;;;;4966474;28;20042;-76
2021/09/06 13:56:20;;;;;;;2.72;2.25;;;29.50;96.90;;;;;;4998088;28;20041;-77
2021/09/06 13:58:58;;;;;;;3.42;2.63;;;29.50;97.00;;;;;;4946491;28;20546;-76
2021/09/06 14:01:43;;;;;;;3.08;2.70;;;29.60;96.90;;;;;;4976522;28;20041;-77
2021/09/06 14:04:45;;;;;;;2.33;2.13;;;29.60;97.00;;;;;;4942142;28;20072;-77
2021/09/06 14:07:52;;;;;;;2.85;2.55;;;29.60;96.60;;;;;;4983525;28;20038;-77
2021/09/06 14:10:59;;;;;;;;;;;;;;;;;;;;;
2021/09/06 14:13:56;;;;;;;3.58;2.30;;;29.60;96.30;;;;;;4921162;28;20047;-77
2021/09/06 14:16:44;;;;;;;2.20;2.00;;;29.60;96.30;;;;;;4899102;29;20087;-77
2021/09/06 14:19:54;;;;;;;2.70;2.47;;;29.60;96.10;;;;;;4864907;29;20127;-77
2021/09/06 14:22:52;;;;;;;4.70;2.70;;;29.60;95.80;;;;;;4824199;29;20099;-77
2021/09/06 14:25:55;;;;;;;4.72;2.10;;;29.50;96.00;;;;;;4839314;29;20055;-77
2021/09/06 14:28:41;;;;;;;2.95;2.58;;;29.50;96.00;;;;;;4831316;29;20049;-77
2021/09/06 14:31:08;;;;;;;2.30;2.17;;;29.40;96.00;;;;;;4847620;29;20059;-77
2021/09/06 14:33:48;;;;;;;3.13;2.50;;;29.40;96.10;;;;;;4857720;29;20052;-77
2021/09/06 14:36:30;;;;;;;;;;;29.40;96.20;;;;;;4877160;29;20406;-77
2021/09/06 14:39:03;;;;;;;4.07;2.57;;;29.40;96.00;;;;;;4890466;29;19928;-77
2021/09/06 14:41:33;;;;;;;2.65;2.45;;;29.30;96.20;;;;;;4941791;28;20329;-77
2021/09/06 14:44:18;;;;;;;2.88;2.63;;;29.30;96.20;;;;;;4959843;28;20050;-77
2021/09/06 14:46:51;;;;;;;3.28;2.40;;;29.30;96.20;;;;;;4979665;28;20057;-77
2021/09/06 14:49:21;;;;;;;3.10;2.53;;;29.30;96.10;;;;;;4988887;28;20042;-77
2021/09/06 14:51:56;;;;;;;5.00;2.40;;;29.30;96.00;;;;;;5010092;28;20124;-77
2021/09/06 14:54:46;;;;;;;2.75;2.22;;;29.20;96.10;;;;;;5015467;28;20471;-77
2021/09/06 14:57:16;;;;;;;4.20;2.42;;;29.20;96.00;;;;;;5038670;28;20128;-77
2021/09/06 14:59:44;;;;;;;3.08;2.72;;;29.20;96.30;;;;;;5016685;28;20040;-77
2021/09/06 15:02:13;;;;;;;5.57;2.78;;;29.20;96.50;;;;;;5022686;28;20072;-77
2021/09/06 15:04:54;;;;;;;4.45;2.45;;;29.30;96.40;;;;;;5040575;28;20053;-77
2021/09/06 15:07:27;;;;;;;3.10;2.55;;;29.20;96.30;;;;;;5002783;28;20140;-77
2021/09/06 15:10:23;;;;;;;3.20;2.50;;;29.20;96.50;;;;;;4938376;28;20453;-77
2021/09/06 15:13:01;;;;;;;;;;;29.20;96.80;;;;;;4936708;28;20065;-77
2021/09/06 15:15:38;;;;;;;2.80;2.55;;;29.20;97.20;;;;;;4936849;28;19929;-77
2021/09/06 15:18:24;;;;;;;3.13;2.83;;;29.20;97.20;;;;;;4931035;28;20047;-77
2021/09/06 15:20:56;;;;;;;5.03;2.90;;;29.20;97.30;;;;;;4951166;28;20510;-77
2021/09/06 15:23:36;;;;;;;;;;;;;;;;;;;;;
2021/09/06 15:26:37;;;;;;;2.88;2.55;;;29.20;97.30;;;;;;4938310;28;20519;-77
2021/09/06 15:29:19;;;;;;;3.80;3.03;;;29.20;97.10;;;;;;4975362;28;20049;-77
2021/09/06 15:32:19;;;;;;;3.13;2.83;;;29.20;97.30;;;;;;4983135;28;20141;-77
2021/09/06 15:35:08;;;;;;;3.83;2.67;;;29.20;97.40;;;;;;4969229;28;20122;-76
2021/09/06 15:38:05;;;;;;;;;;;;;;;;;;;;;
2021/09/06 15:40:58;;;;;;;7.13;3.28;;;29.20;97.50;;;;;;4870602;29;20143;-76
2021/09/06 15:43:45;;;;;;;3.05;2.75;;;29.20;97.50;;;;;;4859504;29;20052;-76
2021/09/06 15:46:29;;;;;;;;;;;29.20;97.50;;;;;;4877878;29;20597;-76
2021/09/06 15:49:37;;;;;;;3.95;2.88;;;29.20;97.50;;;;;;4880489;29;19926;-76
2021/09/06 15:52:40;;;;;;;;;;;;;;;;;;;;;
2021/09/06 16:06:04;;;;;;;;;;;;;;;;;;;;;
2021/09/06 16:09:32;;;;;;;4.03;3.13;;;29.10;97.50;;;;;;6007750;23;20475;-76
2021/09/06 16:12:26;;;;;;;5.13;3.20;;;29.00;97.50;;;;;;6009927;23;20050;-76
2021/09/06 16:15:41;;;;;;;;;;;;;;;;;;;;;
2021/09/06 16:22:19;;;;;;;;;;;;;;;;;;;;;
2021/09/06 16:25:07;;;;;;;4.20;2.90;;;29.10;97.10;;;;;;5821704;24;20108;-75
2021/09/06 18:46:04;;;;;;;4.95;3.50;;;26.90;99.90;;;;;;5895008;23;20052;-77
2021/09/06 19:17:58;;;;;;;5.22;3.83;;;24.80;99.90;;;;;;4746229;29;20488;-77
2021/09/06 19:21:12;;;;;;;8.52;3.90;;;24.70;99.90;;;;;;4707344;29;20055;-77
2021/09/06 19:24:10;;;;;;;4.97;4.15;;;24.60;99.90;;;;;;4716716;29;20052;-77
2021/09/06 19:27:03;;;;;;;;;;;;;;;;;;;;;
2021/09/06 19:29:52;;;;;;;;;;;;;;;;;;;;;
2021/09/06 19:32:57;;;;;;;4.00;3.38;;;24.60;99.90;;;;;;4789141;29;20046;-77
2021/09/06 19:36:29;;;;;;;;;;;;;;;;;;;;;
2021/09/06 19:43:09;;;;;;;;;;;;;;;;;;;;;
2021/09/06 19:46:25;;;;;;;4.30;3.13;;;24.50;99.90;;;;;;4731311;29;20054;-77
2021/09/06 19:49:36;;;;;;;;;;;;;;;;;;;;;
2021/09/06 19:52:39;;;;;;;;;;;;;;;;;;;;;
2021/09/06 19:55:59;;;;;;;;;;;;;;;;;;;;;
2021/09/06 19:59:08;;;;;;;3.40;2.78;;;24.40;99.90;;;;;;4685955;29;20067;-77
2021/09/06 20:02:15;;;;;;;4.70;2.70;;;24.40;99.90;;;;;;4726128;29;20194;-77
2021/09/06 20:04:49;;;;;;;4.35;3.38;;;24.30;99.90;;;;;;4756473;29;20054;-77
2021/09/06 20:07:43;;;;;;;5.00;3.13;;;24.30;99.90;;;;;;4795591;29;20235;-77
2021/09/06 20:10:12;;;;;;;7.25;3.80;;;24.30;99.90;;;;;;4783883;29;20035;-76
2021/09/06 20:12:56;;;;;;;7.63;4.38;;;24.30;99.90;;;;;;4816121;29;20060;-77
2021/09/06 20:15:27;;;;;;;5.80;4.25;;;24.30;99.90;;;;;;4846943;29;20061;-76
2021/09/06 20:18:09;;;;;;;4.63;3.97;;;24.30;99.90;;;;;;4903896;29;20080;-77
2021/09/06 20:20:52;;;;;;;4.45;3.90;;;24.20;99.90;;;;;;4908226;28;20104;-77
2021/09/06 20:23:46;;;;;;;6.07;4.25;;;24.20;99.90;;;;;;4918209;28;20058;-76
2021/09/06 20:26:25;;;;;;;6.78;4.25;;;24.10;99.90;;;;;;4975996;28;20092;-77
2021/09/06 20:29:05;;;;;;;5.05;4.28;;;24.10;99.90;;;;;;4962529;28;20558;-77
2021/09/06 20:31:42;;;;;;;5.55;4.95;;;24.10;99.90;;;;;;4971002;28;20046;-76
2021/09/06 20:34:29;;;;;;;;;;;;;;;;;;;;;
2021/09/06 20:37:07;;;;;;;8.30;5.05;;;24.00;99.90;;;;;;4972015;28;20042;-76
2021/09/06 20:39:41;;;;;;;5.38;4.88;;;24.00;99.90;;;;;;4969735;28;20037;-76
2021/09/06 20:42:56;;;;;;;7.22;5.40;;;23.90;99.90;;;;;;4966339;28;20127;-77
2021/09/06 20:45:26;;;;;;;5.63;5.13;;;23.90;99.90;;;;;;4928785;29;20056;-76
2021/09/06 20:47:58;;;;;;;6.38;5.30;;;23.80;99.90;;;;;;4928778;29;20069;-77
2021/09/06 20:50:50;;;;;;;6.72;5.18;;;23.80;99.90;;;;;;4885552;28;20478;-77
2021/09/06 20:53:30;;;;;;;;;;;;;;;;;;;;;
2021/09/06 20:56:30;;;;;;;6.82;5.65;;;23.80;99.90;;;;;;4913404;29;20044;-76
2021/09/06 20:59:29;;;;;;;;;;;;;;;;;;;;;
2021/09/06 21:02:32;;;;;;;8.15;5.97;;;23.60;99.90;;;;;;4847587;29;20058;-76
2021/09/06 21:05:11;;;;;;;;;;;;;;;;;;;;;
2021/09/06 21:07:42;;;;;;;7.00;5.30;;;23.60;99.90;;;;;;4836168;29;20080;-77
2021/09/06 21:10:11;;;;;;;6.57;5.97;;;23.50;99.90;;;;;;4843346;29;20072;-77
2021/09/06 21:12:41;;;;;;;6.90;5.30;;;23.50;99.90;;;;;;4836182;29;20053;-77
2021/09/06 21:15:21;;;;;;;7.03;5.53;;;23.50;99.90;;;;;;4829333;29;20053;-77
2021/09/06 21:17:51;;;;;;;8.65;6.18;;;23.50;99.90;;;;;;4854536;29;20533;-77
2021/09/06 21:20:37;;;;;;;9.43;5.72;;;23.40;99.90;;;;;;4861087;29;20143;-77
2021/09/06 21:23:12;;;;;;;7.38;6.13;;;23.40;99.90;;;;;;4910703;28;20074;-77
2021/09/06 21:25:49;;;;;;;7.82;5.78;;;23.30;99.90;;;;;;4934993;28;20090;-77
2021/09/06 21:28:27;;;;;;;6.95;5.80;;;23.30;99.90;;;;;;4948781;28;20043;-77
2021/09/06 21:31:01;;;;;;;7.22;5.57;;;23.30;99.90;;;;;;4960501;28;20443;-77
2021/09/06 21:33:30;;;;;;;8.90;5.88;;;23.20;99.90;;;;;;4990448;28;20387;-77
2021/09/06 21:35:59;;;;;;;6.65;6.13;;;23.20;99.90;;;;;;4993925;28;20119;-77
2021/09/06 21:38:34;;;;;;;7.30;6.13;;;23.10;99.90;;;;;;4992012;28;20076;-77
2021/09/06 21:41:09;;;;;;;9.57;6.15;;;23.10;99.90;;;;;;4991644;28;20486;-77
2021/09/06 21:43:42;;;;;;;6.60;5.80;;;23.00;99.90;;;;;;4994707;28;20049;-76
2021/09/06 21:46:11;;;;;;;6.60;5.82;;;23.00;99.90;;;;;;4950892;28;20472;-76
2021/09/06 21:48:46;;;;;;;6.13;5.53;;;23.00;99.90;;;;;;4994641;28;20441;-76
2021/09/06 21:51:26;;;;;;;7.10;6.07;;;23.00;99.90;;;;;;4994849;28;20049;-76
2021/09/06 21:53:56;;;;;;;9.05;5.88;;;22.90;99.90;;;;;;4999871;28;20038;-76
2021/09/06 21:56:32;;;;;;;6.28;5.68;;;22.90;99.90;;;;;;4980032;28;20039;-76
2021/09/06 21:59:23;;;;;;;8.63;5.93;;;22.90;99.90;;;;;;4992341;28;20129;-76
2021/09/06 22:01:50;;;;;;;7.97;5.85;;;22.90;99.90;;;;;;4956168;28;20593;-76
2021/09/06 22:04:19;;;;;;;9.65;5.80;;;22.80;99.90;;;;;;4975319;28;20065;-76
2021/09/06 22:06:51;;;;;;;8.23;6.18;;;22.80;99.90;;;;;;4986532;28;20046;-76
2021/09/06 22:09:21;;;;;;;6.13;5.47;;;22.80;99.90;;;;;;4977144;28;20364;-76
2021/09/06 22:11:50;;;;;;;7.35;5.38;;;22.80;99.90;;;;;;4987727;28;20245;-76
2021/09/06 22:14:19;;;;;;;6.53;5.82;;;22.70;99.90;;;;;;4997034;28;20039;-76
2021/09/06 22:16:50;;;;;;;7.60;5.75;;;22.70;99.90;;;;;;4996315;28;20061;-76
2021/09/06 22:19:17;;;;;;;6.15;5.25;;;22.70;99.90;;;;;;4989970;28;20050;-76
2021/09/06 22:21:54;;;;;;;5.93;5.35;;;22.70;99.90;;;;;;5002038;28;20128;-76
2021/09/06 22:24:28;;;;;;;6.70;5.82;;;22.70;99.90;;;;;;5006625;28;20077;-76
2021/09/06 22:26:58;;;;;;;9.65;5.90;;;22.70;99.90;;;;;;5002210;28;20065;-76
2021/09/06 22:29:26;;;;;;;5.68;5.18;;;22.60;99.90;;;;;;4977505;28;20059;-76
2021/09/06 22:32:03;;;;;;;6.20;5.55;;;22.60;99.90;;;;;;4993589;28;20042;-76
2021/09/06 22:34:31;;;;;;;6.43;5.60;;;22.60;99.90;;;;;;5005981;28;20046;-76
2021/09/06 22:37:01;;;;;;;7.00;5.07;;;22.60;99.90;;;;;;4999654;28;20056;-76
2021/09/06 22:39:30;;;;;;;7.38;5.47;;;22.60;99.90;;;;;;4989746;28;20364;-76
2021/09/06 22:41:57;;;;;;;;;;;22.60;99.90;;;;;;4986545;28;20042;-76
2021/09/06 22:44:25;;;;;;;5.78;5.20;;;22.50;99.90;;;;;;4989636;28;19930;-76
2021/09/06 22:46:55;;;;;;;7.75;5.53;;;22.50;99.90;;;;;;4974850;28;20042;-76
2021/09/06 22:49:23;;;;;;;7.22;5.20;;;22.50;99.90;;;;;;4986321;28;20050;-76
2021/09/06 22:51:58;;;;;;;8.18;5.80;;;22.40;99.90;;;;;;4992468;28;20050;-76
2021/09/06 22:54:25;;;;;;;7.00;5.45;;;22.50;99.90;;;;;;4975637;28;20124;-76
2021/09/06 22:57:04;;;;;;;8.93;5.57;;;22.40;99.90;;;;;;5001449;28;20046;-76
2021/09/06 22:59:35;;;;;;;10.60;5.47;;;22.40;99.90;;;;;;4998776;28;20387;-76
2021/09/06 23:02:08;;;;;;;5.47;4.95;;;22.40;99.90;;;;;;5009593;28;20046;-76
2021/09/06 23:04:37;;;;;;;6.50;5.20;;;22.40;99.90;;;;;;4956077;28;20135;-76
2021/09/06 23:07:05;;;;;;;5.75;4.88;;;22.30;99.90;;;;;;4997355;28;20065;-76
2021/09/06 23:09:32;;;;;;;5.72;5.07;;;22.40;99.90;;;;;;4992706;28;20133;-76
2021/09/06 23:12:03;;;;;;;8.15;5.10;;;22.30;99.90;;;;;;5001639;28;20140;-76
2021/09/06 23:14:32;;;;;;;6.70;5.80;;;22.30;99.90;;;;;;4989007;28;20625;-76
2021/09/06 23:17:00;;;;;;;5.30;4.80;;;22.30;99.90;;;;;;4994010;28;20108;-76
2021/09/06 23:19:27;;;;;;;6.63;5.28;;;22.30;99.90;;;;;;4994621;28;20046;-76
2021/09/06 23:21:54;;;;;;;5.38;4.82;;;22.30;99.90;;;;;;4988257;28;20038;-76
2021/09/06 23:24:25;;;;;;;7.47;5.68;;;22.20;99.90;;;;;;4992679;28;20042;-76
2021/09/06 23:26:55;;;;;;;5.25;4.70;;;22.20;99.90;;;;;;4991969;28;20073;-75
2021/09/06 23:29:22;;;;;;;5.18;4.68;;;22.20;99.90;;;;;;4986141;28;20042;-76
2021/09/06 23:31:50;;;;;;;7.22;5.30;;;22.20;99.90;;;;;;4969942;28;20053;-76
2021/09/06 23:34:21;;;;;;;5.13;4.72;;;22.20;99.90;;;;;;4978243;28;20129;-76
2021/09/06 23:36:54;;;;;;;6.88;4.97;;;22.20;99.90;;;;;;4974191;28;20054;-76
2021/09/06 23:39:21;;;;;;;6.72;4.40;;;22.20;99.90;;;;;;4969750;28;20045;-76
2021/09/06 23:41:48;;;;;;;5.68;4.85;;;22.10;99.90;;;;;;4996376;28;20053;-76
2021/09/06 23:44:20;;;;;;;6.00;4.65;;;22.10;99.90;;;;;;4981204;28;20046;-76
2021/09/06 23:46:50;;;;;;;5.32;4.43;;;22.10;99.90;;;;;;4984538;28;20046;-76
2021/09/06 23:49:18;;;;;;;4.88;4.45;;;22.10;99.90;;;;;;4981593;28;20057;-76
2021/09/06 23:51:45;;;;;;;6.15;4.63;;;22.10;99.90;;;;;;4980093;28;20047;-76
2021/09/06 23:54:12;;;;;;;5.40;4.15;;;22.10;99.90;;;;;;4995332;28;20073;-76
2021/09/06 23:56:39;;;;;;;8.60;4.88;;;22.10;99.90;;;;;;4993258;28;20050;-76
2021/09/06 23:59:06;;;;;;;5.18;4.13;;;22.10;99.90;;;;;;4994248;28;20050;-76
